sensor_id;sensor_type;location;lat;lon;timestamp;P1;durP1;ratioP1;P2;durP2;ratioP2
45812;SDS011;31519;45.408;10.962;2024-01-15T00:01:23;111.97;;;48.97;;
45812;SDS011;31519;45.408;10.962;2024-01-15T00:03:52;101.63;;;49.60;;
45812;SDS011;31519;45.408;10.962;2024-01-15T00:06:20;97.72;;;46.42;;
45812;SDS011;31519;45.408;10.962;2024-01-15T00:08:49;100.68;;;49.35;;
45812;SDS011;31519;45.408;10.962;2024-01-15T00:11:17;100.47;;;47.10;;
45812;SDS011;31519;45.408;10.962;2024-01-15T00:13:45;102.72;;;49.28;;
45812;SDS011;31519;45.408;10.962;2024-01-15T00:16:14;98.30;;;44.92;;
45812;SDS011;31519;45.408;10.962;2024-01-15T00:18:42;94.85;;;46.72;;
45812;SDS011;31519;45.408;10.962;2024-01-15T00:21:10;109.60;;;47.75;;
45812;SDS011;31519;45.408;10.962;2024-01-15T00:23:42;95.15;;;47.45;;
45812;SDS011;31519;45.408;10.962;2024-01-15T00:26:12;97.72;;;48.25;;
45812;SDS011;31519;45.408;10.962;2024-01-15T00:28:40;103.53;;;49.72;;
45812;SDS011;31519;45.408;10.962;2024-01-15T00:31:08;98.97;;;48.00;;
45812;SDS011;31519;45.408;10.962;2024-01-15T00:33:37;113.75;;;50.25;;
45812;SDS011;31519;45.408;10.962;2024-01-15T00:36:06;102.03;;;48.20;;
45812;SDS011;31519;45.408;10.962;2024-01-15T00:38:34;98.68;;;48.97;;
45812;SDS011;31519;45.408;10.962;2024-01-15T00:41:03;104.72;;;50.63;;
45812;SDS011;31519;45.408;10.962;2024-01-15T00:43:31;103.13;;;48.03;;
45812;SDS011;31519;45.408;10.962;2024-01-15T00:46:03;101.50;;;47.35;;
45812;SDS011;31519;45.408;10.962;2024-01-15T00:48:32;96.60;;;47.92;;
45812;SDS011;31519;45.408;10.962;2024-01-15T00:51:01;102.32;;;47.53;;
45812;SDS011;31519;45.408;10.962;2024-01-15T00:53:29;106.35;;;49.05;;
45812;SDS011;31519;45.408;10.962;2024-01-15T00:55:57;92.28;;;46.38;;
45812;SDS011;31519;45.408;10.962;2024-01-15T00:58:26;95.22;;;47.58;;
45812;SDS011;31519;45.408;10.962;2024-01-15T01:00:55;111.47;;;50.50;;
45812;SDS011;31519;45.408;10.962;2024-01-15T01:03:23;104.72;;;49.55;;
45812;SDS011;31519;45.408;10.962;2024-01-15T01:05:52;99.97;;;47.42;;
45812;SDS011;31519;45.408;10.962;2024-01-15T01:08:20;100.85;;;49.08;;
45812;SDS011;31519;45.408;10.962;2024-01-15T01:10:48;97.03;;;46.63;;
45812;SDS011;31519;45.408;10.962;2024-01-15T01:13:16;94.93;;;50.30;;
45812;SDS011;31519;45.408;10.962;2024-01-15T01:15:45;102.20;;;49.10;;
45812;SDS011;31519;45.408;10.962;2024-01-15T01:18:13;99.05;;;46.13;;
45812;SDS011;31519;45.408;10.962;2024-01-15T01:20:42;102.38;;;48.67;;
45812;SDS011;31519;45.408;10.962;2024-01-15T01:23:10;106.40;;;49.88;;
45812;SDS011;31519;45.408;10.962;2024-01-15T01:25:38;109.43;;;50.33;;
45812;SDS011;31519;45.408;10.962;2024-01-15T01:28:06;96.75;;;46.17;;
45812;SDS011;31519;45.408;10.962;2024-01-15T01:30:35;98.57;;;49.33;;
45812;SDS011;31519;45.408;10.962;2024-01-15T01:33:03;100.68;;;46.90;;
45812;SDS011;31519;45.408;10.962;2024-01-15T01:35:32;103.18;;;48.85;;
45812;SDS011;31519;45.408;10.962;2024-01-15T01:38:00;101.65;;;47.97;;
45812;SDS011;31519;45.408;10.962;2024-01-15T01:40:29;97.18;;;49.10;;
45812;SDS011;31519;45.408;10.962;2024-01-15T01:42:57;102.57;;;48.47;;
45812;SDS011;31519;45.408;10.962;2024-01-15T01:45:26;97.22;;;48.20;;
45812;SDS011;31519;45.408;10.962;2024-01-15T01:47:54;99.72;;;48.05;;
45812;SDS011;31519;45.408;10.962;2024-01-15T01:50:23;102.10;;;48.17;;
45812;SDS011;31519;45.408;10.962;2024-01-15T01:52:51;106.65;;;47.65;;
45812;SDS011;31519;45.408;10.962;2024-01-15T01:55:20;94.80;;;45.15;;
45812;SDS011;31519;45.408;10.962;2024-01-15T01:57:49;104.60;;;49.08;;
45812;SDS011;31519;45.408;10.962;2024-01-15T02:00:18;99.25;;;48.15;;
45812;SDS011;31519;45.408;10.962;2024-01-15T02:02:46;98.03;;;47.65;;
45812;SDS011;31519;45.408;10.962;2024-01-15T02:05:15;100.55;;;47.33;;
45812;SDS011;31519;45.408;10.962;2024-01-15T02:07:46;102.38;;;46.10;;
45812;SDS011;31519;45.408;10.962;2024-01-15T02:10:15;113.28;;;47.60;;
45812;SDS011;31519;45.408;10.962;2024-01-15T02:12:43;97.95;;;47.25;;
45812;SDS011;31519;45.408;10.962;2024-01-15T02:15:14;96.90;;;46.45;;
45812;SDS011;31519;45.408;10.962;2024-01-15T02:17:58;98.03;;;45.17;;
45812;SDS011;31519;45.408;10.962;2024-01-15T02:20:31;101.63;;;46.42;;
45812;SDS011;31519;45.408;10.962;2024-01-15T02:23:09;100.60;;;46.17;;
45812;SDS011;31519;45.408;10.962;2024-01-15T02:25:42;96.88;;;46.20;;
45812;SDS011;31519;45.408;10.962;2024-01-15T02:28:14;96.53;;;46.85;;
45812;SDS011;31519;45.408;10.962;2024-01-15T02:30:43;101.90;;;47.13;;
45812;SDS011;31519;45.408;10.962;2024-01-15T02:33:13;97.57;;;46.88;;
45812;SDS011;31519;45.408;10.962;2024-01-15T02:35:42;96.97;;;46.90;;
45812;SDS011;31519;45.408;10.962;2024-01-15T02:38:10;101.35;;;47.85;;
45812;SDS011;31519;45.408;10.962;2024-01-15T02:40:38;109.18;;;48.67;;
45812;SDS011;31519;45.408;10.962;2024-01-15T02:43:07;102.13;;;47.05;;
45812;SDS011;31519;45.408;10.962;2024-01-15T02:45:35;106.25;;;49.65;;
45812;SDS011;31519;45.408;10.962;2024-01-15T02:48:04;118.85;;;50.63;;
45812;SDS011;31519;45.408;10.962;2024-01-15T02:50:32;101.53;;;48.20;;
45812;SDS011;31519;45.408;10.962;2024-01-15T02:53:00;103.50;;;48.67;;
45812;SDS011;31519;45.408;10.962;2024-01-15T02:55:29;94.97;;;45.53;;
45812;SDS011;31519;45.408;10.962;2024-01-15T02:57:57;96.63;;;47.35;;
45812;SDS011;31519;45.408;10.962;2024-01-15T03:00:26;104.20;;;47.40;;
45812;SDS011;31519;45.408;10.962;2024-01-15T03:02:54;109.10;;;48.22;;
45812;SDS011;31519;45.408;10.962;2024-01-15T03:05:23;104.22;;;48.88;;
45812;SDS011;31519;45.408;10.962;2024-01-15T03:07:51;105.57;;;47.55;;
45812;SDS011;31519;45.408;10.962;2024-01-15T03:10:20;103.95;;;49.00;;
45812;SDS011;31519;45.408;10.962;2024-01-15T03:12:48;98.28;;;47.13;;
45812;SDS011;31519;45.408;10.962;2024-01-15T03:15:17;102.70;;;46.55;;
45812;SDS011;31519;45.408;10.962;2024-01-15T03:17:46;103.53;;;48.75;;
45812;SDS011;31519;45.408;10.962;2024-01-15T03:20:15;96.35;;;48.55;;
45812;SDS011;31519;45.408;10.962;2024-01-15T03:22:43;101.40;;;49.28;;
45812;SDS011;31519;45.408;10.962;2024-01-15T03:25:11;101.75;;;47.50;;
45812;SDS011;31519;45.408;10.962;2024-01-15T03:27:40;103.28;;;47.83;;
45812;SDS011;31519;45.408;10.962;2024-01-15T03:30:08;91.97;;;47.08;;
45812;SDS011;31519;45.408;10.962;2024-01-15T03:32:37;96.45;;;46.63;;
45812;SDS011;31519;45.408;10.962;2024-01-15T03:35:06;105.57;;;49.78;;
45812;SDS011;31519;45.408;10.962;2024-01-15T03:37:34;113.03;;;47.42;;
45812;SDS011;31519;45.408;10.962;2024-01-15T03:40:04;102.78;;;45.85;;
45812;SDS011;31519;45.408;10.962;2024-01-15T03:42:33;97.85;;;47.10;;
45812;SDS011;31519;45.408;10.962;2024-01-15T03:45:01;104.60;;;47.42;;
45812;SDS011;31519;45.408;10.962;2024-01-15T03:47:30;98.63;;;47.42;;
45812;SDS011;31519;45.408;10.962;2024-01-15T03:49:58;104.78;;;46.90;;
45812;SDS011;31519;45.408;10.962;2024-01-15T03:52:26;89.68;;;44.03;;
45812;SDS011;31519;45.408;10.962;2024-01-15T03:54:55;97.15;;;48.03;;
45812;SDS011;31519;45.408;10.962;2024-01-15T03:57:23;102.22;;;47.20;;
45812;SDS011;31519;45.408;10.962;2024-01-15T03:59:51;96.18;;;44.25;;
45812;SDS011;31519;45.408;10.962;2024-01-15T04:02:20;93.60;;;43.28;;
45812;SDS011;31519;45.408;10.962;2024-01-15T04:04:48;94.40;;;44.95;;
45812;SDS011;31519;45.408;10.962;2024-01-15T04:07:16;92.68;;;44.58;;
45812;SDS011;31519;45.408;10.962;2024-01-15T04:09:45;100.90;;;48.08;;
45812;SDS011;31519;45.408;10.962;2024-01-15T04:12:13;100.70;;;45.60;;
45812;SDS011;31519;45.408;10.962;2024-01-15T04:14:42;92.97;;;42.38;;
45812;SDS011;31519;45.408;10.962;2024-01-15T04:17:10;94.70;;;45.65;;
45812;SDS011;31519;45.408;10.962;2024-01-15T04:19:39;86.82;;;43.55;;
45812;SDS011;31519;45.408;10.962;2024-01-15T04:22:10;95.90;;;45.63;;
45812;SDS011;31519;45.408;10.962;2024-01-15T04:24:39;89.72;;;42.25;;
45812;SDS011;31519;45.408;10.962;2024-01-15T04:27:07;86.55;;;41.92;;
45812;SDS011;31519;45.408;10.962;2024-01-15T04:29:37;93.63;;;44.10;;
45812;SDS011;31519;45.408;10.962;2024-01-15T04:32:08;90.70;;;43.60;;
45812;SDS011;31519;45.408;10.962;2024-01-15T04:34:36;91.68;;;42.35;;
45812;SDS011;31519;45.408;10.962;2024-01-15T04:37:05;100.57;;;45.17;;
45812;SDS011;31519;45.408;10.962;2024-01-15T04:39:33;86.55;;;43.55;;
45812;SDS011;31519;45.408;10.962;2024-01-15T04:42:02;89.45;;;44.55;;
45812;SDS011;31519;45.408;10.962;2024-01-15T04:44:30;90.90;;;42.83;;
45812;SDS011;31519;45.408;10.962;2024-01-15T04:46:58;83.68;;;44.72;;
45812;SDS011;31519;45.408;10.962;2024-01-15T04:49:27;97.50;;;44.60;;
45812;SDS011;31519;45.408;10.962;2024-01-15T04:51:57;88.50;;;43.67;;
45812;SDS011;31519;45.408;10.962;2024-01-15T04:54:25;83.25;;;43.65;;
45812;SDS011;31519;45.408;10.962;2024-01-15T04:56:54;90.10;;;42.58;;
45812;SDS011;31519;45.408;10.962;2024-01-15T04:59:22;89.50;;;43.70;;
45812;SDS011;31519;45.408;10.962;2024-01-15T05:01:50;84.47;;;44.10;;
45812;SDS011;31519;45.408;10.962;2024-01-15T05:04:19;99.43;;;45.60;;
45812;SDS011;31519;45.408;10.962;2024-01-15T05:06:47;90.07;;;45.08;;
45812;SDS011;31519;45.408;10.962;2024-01-15T05:09:15;88.68;;;44.42;;
45812;SDS011;31519;45.408;10.962;2024-01-15T05:11:45;92.85;;;43.38;;
45812;SDS011;31519;45.408;10.962;2024-01-15T05:14:14;88.30;;;45.20;;
45812;SDS011;31519;45.408;10.962;2024-01-15T05:16:48;88.35;;;42.75;;
45812;SDS011;31519;45.408;10.962;2024-01-15T05:19:17;97.15;;;46.53;;
45812;SDS011;31519;45.408;10.962;2024-01-15T05:21:46;92.13;;;44.67;;
45812;SDS011;31519;45.408;10.962;2024-01-15T05:24:14;92.13;;;43.70;;
45812;SDS011;31519;45.408;10.962;2024-01-15T05:26:42;97.38;;;45.20;;
45812;SDS011;31519;45.408;10.962;2024-01-15T05:29:10;89.47;;;42.53;;
45812;SDS011;31519;45.408;10.962;2024-01-15T05:31:39;95.88;;;43.80;;
45812;SDS011;31519;45.408;10.962;2024-01-15T05:34:07;88.50;;;44.08;;
45812;SDS011;31519;45.408;10.962;2024-01-15T05:36:35;89.72;;;44.30;;
45812;SDS011;31519;45.408;10.962;2024-01-15T05:39:04;82.03;;;42.50;;
45812;SDS011;31519;45.408;10.962;2024-01-15T05:41:33;90.88;;;44.55;;
45812;SDS011;31519;45.408;10.962;2024-01-15T05:44:01;87.07;;;42.10;;
45812;SDS011;31519;45.408;10.962;2024-01-15T05:46:29;92.47;;;44.72;;
45812;SDS011;31519;45.408;10.962;2024-01-15T05:48:58;91.20;;;44.05;;
45812;SDS011;31519;45.408;10.962;2024-01-15T05:51:26;86.18;;;43.58;;
45812;SDS011;31519;45.408;10.962;2024-01-15T05:53:55;91.28;;;43.53;;
45812;SDS011;31519;45.408;10.962;2024-01-15T05:56:23;82.10;;;40.90;;
45812;SDS011;31519;45.408;10.962;2024-01-15T05:58:52;93.50;;;42.83;;
45812;SDS011;31519;45.408;10.962;2024-01-15T06:01:20;93.55;;;43.83;;
45812;SDS011;31519;45.408;10.962;2024-01-15T06:03:48;96.38;;;41.83;;
45812;SDS011;31519;45.408;10.962;2024-01-15T06:06:17;84.45;;;43.67;;
45812;SDS011;31519;45.408;10.962;2024-01-15T06:08:46;84.65;;;43.40;;
45812;SDS011;31519;45.408;10.962;2024-01-15T06:11:14;91.68;;;43.25;;
45812;SDS011;31519;45.408;10.962;2024-01-15T06:13:42;90.55;;;43.40;;
45812;SDS011;31519;45.408;10.962;2024-01-15T06:16:14;97.25;;;43.35;;
45812;SDS011;31519;45.408;10.962;2024-01-15T06:18:48;94.57;;;42.38;;
45812;SDS011;31519;45.408;10.962;2024-01-15T06:21:16;89.30;;;44.58;;
45812;SDS011;31519;45.408;10.962;2024-01-15T06:23:45;96.15;;;43.78;;
45812;SDS011;31519;45.408;10.962;2024-01-15T06:26:13;85.10;;;42.30;;
45812;SDS011;31519;45.408;10.962;2024-01-15T06:28:42;93.75;;;42.90;;
45812;SDS011;31519;45.408;10.962;2024-01-15T06:31:10;71.35;;;36.22;;
45812;SDS011;31519;45.408;10.962;2024-01-15T06:33:38;74.78;;;35.55;;
45812;SDS011;31519;45.408;10.962;2024-01-15T06:36:07;85.05;;;38.22;;
45812;SDS011;31519;45.408;10.962;2024-01-15T06:38:35;81.10;;;40.90;;
45812;SDS011;31519;45.408;10.962;2024-01-15T06:41:04;90.47;;;39.70;;
45812;SDS011;31519;45.408;10.962;2024-01-15T06:43:32;96.03;;;42.17;;
45812;SDS011;31519;45.408;10.962;2024-01-15T06:46:00;93.32;;;40.83;;
45812;SDS011;31519;45.408;10.962;2024-01-15T06:48:34;95.93;;;43.90;;
45812;SDS011;31519;45.408;10.962;2024-01-15T06:51:03;90.32;;;43.55;;
45812;SDS011;31519;45.408;10.962;2024-01-15T06:53:32;96.60;;;46.45;;
45812;SDS011;31519;45.408;10.962;2024-01-15T06:56:00;91.60;;;42.95;;
45812;SDS011;31519;45.408;10.962;2024-01-15T06:58:28;99.25;;;44.75;;
45812;SDS011;31519;45.408;10.962;2024-01-15T07:00:59;88.95;;;42.65;;
45812;SDS011;31519;45.408;10.962;2024-01-15T07:03:28;105.28;;;45.72;;
45812;SDS011;31519;45.408;10.962;2024-01-15T07:05:56;98.95;;;45.80;;
45812;SDS011;31519;45.408;10.962;2024-01-15T07:08:26;100.80;;;44.88;;
45812;SDS011;31519;45.408;10.962;2024-01-15T07:10:54;105.05;;;46.42;;
45812;SDS011;31519;45.408;10.962;2024-01-15T07:13:22;95.88;;;44.78;;
45812;SDS011;31519;45.408;10.962;2024-01-15T07:15:50;101.97;;;46.55;;
45812;SDS011;31519;45.408;10.962;2024-01-15T07:18:19;96.53;;;46.75;;
45812;SDS011;31519;45.408;10.962;2024-01-15T07:20:48;100.85;;;44.38;;
45812;SDS011;31519;45.408;10.962;2024-01-15T07:23:16;104.03;;;47.00;;
45812;SDS011;31519;45.408;10.962;2024-01-15T07:25:44;94.32;;;44.60;;
45812;SDS011;31519;45.408;10.962;2024-01-15T07:28:13;98.10;;;45.78;;
45812;SDS011;31519;45.408;10.962;2024-01-15T07:30:41;99.10;;;44.28;;
45812;SDS011;31519;45.408;10.962;2024-01-15T07:33:10;88.43;;;42.13;;
45812;SDS011;31519;45.408;10.962;2024-01-15T07:35:38;88.85;;;41.95;;
45812;SDS011;31519;45.408;10.962;2024-01-15T07:38:07;89.03;;;41.10;;
45812;SDS011;31519;45.408;10.962;2024-01-15T07:40:36;78.40;;;37.00;;
45812;SDS011;31519;45.408;10.962;2024-01-15T07:43:04;63.13;;;30.02;;
45812;SDS011;31519;45.408;10.962;2024-01-15T07:45:33;63.65;;;29.42;;
45812;SDS011;31519;45.408;10.962;2024-01-15T07:48:01;70.95;;;28.90;;
45812;SDS011;31519;45.408;10.962;2024-01-15T07:50:30;67.93;;;28.70;;
45812;SDS011;31519;45.408;10.962;2024-01-15T07:52:59;68.10;;;28.65;;
45812;SDS011;31519;45.408;10.962;2024-01-15T07:55:27;62.28;;;29.02;;
45812;SDS011;31519;45.408;10.962;2024-01-15T07:57:55;60.25;;;27.92;;
45812;SDS011;31519;45.408;10.962;2024-01-15T08:00:41;57.20;;;27.77;;
45812;SDS011;31519;45.408;10.962;2024-01-15T08:03:11;67.20;;;27.25;;
45812;SDS011;31519;45.408;10.962;2024-01-15T08:05:40;58.67;;;27.70;;
45812;SDS011;31519;45.408;10.962;2024-01-15T08:08:09;50.42;;;24.83;;
45812;SDS011;31519;45.408;10.962;2024-01-15T08:10:37;68.53;;;26.73;;
45812;SDS011;31519;45.408;10.962;2024-01-15T08:13:06;66.35;;;26.98;;
45812;SDS011;31519;45.408;10.962;2024-01-15T08:15:36;54.72;;;25.20;;
45812;SDS011;31519;45.408;10.962;2024-01-15T08:18:04;59.78;;;24.00;;
45812;SDS011;31519;45.408;10.962;2024-01-15T08:20:33;50.85;;;25.30;;
45812;SDS011;31519;45.408;10.962;2024-01-15T08:23:01;47.22;;;22.55;;
45812;SDS011;31519;45.408;10.962;2024-01-15T08:25:30;64.90;;;22.17;;
45812;SDS011;31519;45.408;10.962;2024-01-15T08:27:58;48.30;;;22.23;;
45812;SDS011;31519;45.408;10.962;2024-01-15T08:30:26;46.55;;;22.35;;
45812;SDS011;31519;45.408;10.962;2024-01-15T08:32:56;48.97;;;20.83;;
45812;SDS011;31519;45.408;10.962;2024-01-15T08:35:35;55.75;;;21.80;;
45812;SDS011;31519;45.408;10.962;2024-01-15T08:38:03;41.38;;;20.13;;
45812;SDS011;31519;45.408;10.962;2024-01-15T08:40:31;42.95;;;18.75;;
45812;SDS011;31519;45.408;10.962;2024-01-15T08:43:00;40.78;;;20.48;;
45812;SDS011;31519;45.408;10.962;2024-01-15T08:45:29;44.90;;;20.63;;
45812;SDS011;31519;45.408;10.962;2024-01-15T08:47:59;46.08;;;21.63;;
45812;SDS011;31519;45.408;10.962;2024-01-15T08:50:29;51.15;;;21.83;;
45812;SDS011;31519;45.408;10.962;2024-01-15T08:52:58;48.55;;;21.35;;
45812;SDS011;31519;45.408;10.962;2024-01-15T08:55:26;48.65;;;23.38;;
45812;SDS011;31519;45.408;10.962;2024-01-15T08:57:55;49.00;;;23.50;;
45812;SDS011;31519;45.408;10.962;2024-01-15T09:00:23;45.63;;;22.83;;
45812;SDS011;31519;45.408;10.962;2024-01-15T09:02:52;44.58;;;23.60;;
45812;SDS011;31519;45.408;10.962;2024-01-15T09:05:20;50.35;;;21.92;;
45812;SDS011;31519;45.408;10.962;2024-01-15T09:07:49;56.25;;;26.38;;
45812;SDS011;31519;45.408;10.962;2024-01-15T09:10:19;56.80;;;27.80;;
45812;SDS011;31519;45.408;10.962;2024-01-15T09:12:48;55.72;;;27.90;;
45812;SDS011;31519;45.408;10.962;2024-01-15T09:15:19;77.55;;;29.83;;
45812;SDS011;31519;45.408;10.962;2024-01-15T09:17:48;68.25;;;29.08;;
45812;SDS011;31519;45.408;10.962;2024-01-15T09:20:16;68.25;;;33.17;;
45812;SDS011;31519;45.408;10.962;2024-01-15T09:22:44;67.68;;;33.58;;
45812;SDS011;31519;45.408;10.962;2024-01-15T09:25:13;64.32;;;32.35;;
45812;SDS011;31519;45.408;10.962;2024-01-15T09:27:42;71.90;;;34.97;;
45812;SDS011;31519;45.408;10.962;2024-01-15T09:30:10;76.63;;;35.20;;
45812;SDS011;31519;45.408;10.962;2024-01-15T09:32:39;85.03;;;36.38;;
45812;SDS011;31519;45.408;10.962;2024-01-15T09:35:08;71.18;;;36.03;;
45812;SDS011;31519;45.408;10.962;2024-01-15T09:37:36;72.93;;;35.38;;
45812;SDS011;31519;45.408;10.962;2024-01-15T09:40:14;89.90;;;36.30;;
45812;SDS011;31519;45.408;10.962;2024-01-15T09:42:44;78.35;;;36.72;;
45812;SDS011;31519;45.408;10.962;2024-01-15T09:45:14;69.05;;;36.55;;
45812;SDS011;31519;45.408;10.962;2024-01-15T09:47:43;84.57;;;39.10;;
45812;SDS011;31519;45.408;10.962;2024-01-15T09:50:13;82.93;;;40.75;;
45812;SDS011;31519;45.408;10.962;2024-01-15T09:52:43;86.10;;;42.05;;
45812;SDS011;31519;45.408;10.962;2024-01-15T09:55:13;86.10;;;40.83;;
45812;SDS011;31519;45.408;10.962;2024-01-15T09:57:44;93.80;;;39.10;;
45812;SDS011;31519;45.408;10.962;2024-01-15T10:00:14;76.75;;;37.72;;
45812;SDS011;31519;45.408;10.962;2024-01-15T10:02:45;76.30;;;38.08;;
45812;SDS011;31519;45.408;10.962;2024-01-15T10:05:14;75.43;;;37.88;;
45812;SDS011;31519;45.408;10.962;2024-01-15T10:07:42;74.18;;;37.80;;
45812;SDS011;31519;45.408;10.962;2024-01-15T10:10:13;72.13;;;38.17;;
45812;SDS011;31519;45.408;10.962;2024-01-15T10:12:41;84.90;;;40.17;;
45812;SDS011;31519;45.408;10.962;2024-01-15T10:15:10;84.28;;;40.10;;
45812;SDS011;31519;45.408;10.962;2024-01-15T10:17:40;83.97;;;42.13;;
45812;SDS011;31519;45.408;10.962;2024-01-15T10:20:10;74.25;;;38.60;;
45812;SDS011;31519;45.408;10.962;2024-01-15T10:22:42;75.15;;;38.58;;
45812;SDS011;31519;45.408;10.962;2024-01-15T10:25:11;75.78;;;39.05;;
45812;SDS011;31519;45.408;10.962;2024-01-15T10:27:43;74.63;;;39.75;;
45812;SDS011;31519;45.408;10.962;2024-01-15T10:30:11;75.88;;;40.85;;
45812;SDS011;31519;45.408;10.962;2024-01-15T10:32:42;72.97;;;38.00;;
45812;SDS011;31519;45.408;10.962;2024-01-15T10:35:32;74.78;;;36.35;;
45812;SDS011;31519;45.408;10.962;2024-01-15T10:38:02;65.78;;;34.78;;
45812;SDS011;31519;45.408;10.962;2024-01-15T10:40:31;64.07;;;34.20;;
45812;SDS011;31519;45.408;10.962;2024-01-15T10:42:59;70.38;;;36.10;;
45812;SDS011;31519;45.408;10.962;2024-01-15T10:45:28;67.93;;;35.25;;
45812;SDS011;31519;45.408;10.962;2024-01-15T10:47:56;63.60;;;33.55;;
45812;SDS011;31519;45.408;10.962;2024-01-15T10:50:30;65.57;;;34.40;;
45812;SDS011;31519;45.408;10.962;2024-01-15T10:53:03;76.45;;;37.50;;
45812;SDS011;31519;45.408;10.962;2024-01-15T10:55:32;69.00;;;37.50;;
45812;SDS011;31519;45.408;10.962;2024-01-15T10:58:03;66.70;;;35.80;;
45812;SDS011;31519;45.408;10.962;2024-01-15T11:00:31;67.57;;;36.20;;
45812;SDS011;31519;45.408;10.962;2024-01-15T11:03:01;75.50;;;35.47;;
45812;SDS011;31519;45.408;10.962;2024-01-15T11:05:43;70.75;;;35.95;;
45812;SDS011;31519;45.408;10.962;2024-01-15T11:08:13;74.28;;;37.40;;
45812;SDS011;31519;45.408;10.962;2024-01-15T11:10:55;72.25;;;37.60;;
45812;SDS011;31519;45.408;10.962;2024-01-15T11:16:09;61.72;;;34.60;;
45812;SDS011;31519;45.408;10.962;2024-01-15T11:18:41;77.00;;;37.05;;
45812;SDS011;31519;45.408;10.962;2024-01-15T11:21:29;64.05;;;33.83;;
45812;SDS011;31519;45.408;10.962;2024-01-15T11:24:01;66.70;;;36.03;;
45812;SDS011;31519;45.408;10.962;2024-01-15T11:26:34;65.93;;;33.10;;
45812;SDS011;31519;45.408;10.962;2024-01-15T11:29:09;77.05;;;36.67;;
45812;SDS011;31519;45.408;10.962;2024-01-15T11:31:58;73.90;;;36.28;;
45812;SDS011;31519;45.408;10.962;2024-01-15T11:40:21;67.35;;;34.65;;
45812;SDS011;31519;45.408;10.962;2024-01-15T11:42:50;66.40;;;36.80;;
45812;SDS011;31519;45.408;10.962;2024-01-15T11:45:20;66.40;;;35.78;;
45812;SDS011;31519;45.408;10.962;2024-01-15T11:48:09;64.82;;;35.15;;
45812;SDS011;31519;45.408;10.962;2024-01-15T11:50:50;60.55;;;34.13;;
45812;SDS011;31519;45.408;10.962;2024-01-15T11:56:02;67.20;;;35.67;;
45812;SDS011;31519;45.408;10.962;2024-01-15T11:58:34;67.80;;;35.33;;
45812;SDS011;31519;45.408;10.962;2024-01-15T12:01:03;68.38;;;34.63;;
45812;SDS011;31519;45.408;10.962;2024-01-15T12:03:32;66.18;;;35.30;;
45812;SDS011;31519;45.408;10.962;2024-01-15T12:06:07;74.93;;;37.22;;
45812;SDS011;31519;45.408;10.962;2024-01-15T12:08:38;68.05;;;36.20;;
45812;SDS011;31519;45.408;10.962;2024-01-15T12:11:06;65.57;;;35.92;;
45812;SDS011;31519;45.408;10.962;2024-01-15T12:13:38;68.30;;;36.85;;
45812;SDS011;31519;45.408;10.962;2024-01-15T12:16:07;61.03;;;35.47;;
45812;SDS011;31519;45.408;10.962;2024-01-15T12:18:36;74.00;;;37.67;;
45812;SDS011;31519;45.408;10.962;2024-01-15T12:21:04;72.88;;;37.75;;
45812;SDS011;31519;45.408;10.962;2024-01-15T12:23:33;68.20;;;39.28;;
45812;SDS011;31519;45.408;10.962;2024-01-15T12:26:02;64.85;;;35.85;;
45812;SDS011;31519;45.408;10.962;2024-01-15T12:28:30;66.32;;;39.10;;
45812;SDS011;31519;45.408;10.962;2024-01-15T12:30:59;61.97;;;38.03;;
45812;SDS011;31519;45.408;10.962;2024-01-15T12:33:28;73.18;;;41.53;;
45812;SDS011;31519;45.408;10.962;2024-01-15T12:35:57;69.65;;;37.38;;
45812;SDS011;31519;45.408;10.962;2024-01-15T12:38:25;86.75;;;37.08;;
45812;SDS011;31519;45.408;10.962;2024-01-15T12:40:53;74.90;;;38.17;;
45812;SDS011;31519;45.408;10.962;2024-01-15T12:43:22;66.28;;;38.50;;
45812;SDS011;31519;45.408;10.962;2024-01-15T12:45:51;67.63;;;37.90;;
45812;SDS011;31519;45.408;10.962;2024-01-15T12:48:19;71.90;;;38.72;;
45812;SDS011;31519;45.408;10.962;2024-01-15T12:50:48;69.45;;;39.20;;
45812;SDS011;31519;45.408;10.962;2024-01-15T12:53:16;71.70;;;38.20;;
45812;SDS011;31519;45.408;10.962;2024-01-15T12:55:46;65.13;;;37.97;;
45812;SDS011;31519;45.408;10.962;2024-01-15T12:58:14;79.35;;;39.25;;
45812;SDS011;31519;45.408;10.962;2024-01-15T13:00:46;65.97;;;36.28;;
45812;SDS011;31519;45.408;10.962;2024-01-15T13:03:15;69.95;;;36.50;;
45812;SDS011;31519;45.408;10.962;2024-01-15T13:05:44;55.72;;;33.65;;
45812;SDS011;31519;45.408;10.962;2024-01-15T13:08:13;54.95;;;31.83;;
45812;SDS011;31519;45.408;10.962;2024-01-15T13:10:42;59.00;;;33.80;;
45812;SDS011;31519;45.408;10.962;2024-01-15T13:13:10;52.88;;;32.03;;
45812;SDS011;31519;45.408;10.962;2024-01-15T13:15:40;62.05;;;31.92;;
45812;SDS011;31519;45.408;10.962;2024-01-15T13:18:08;58.85;;;29.23;;
45812;SDS011;31519;45.408;10.962;2024-01-15T13:20:38;47.38;;;27.88;;
45812;SDS011;31519;45.408;10.962;2024-01-15T13:23:06;60.47;;;31.52;;
45812;SDS011;31519;45.408;10.962;2024-01-15T13:25:35;58.40;;;31.27;;
45812;SDS011;31519;45.408;10.962;2024-01-15T13:28:06;48.78;;;28.17;;
45812;SDS011;31519;45.408;10.962;2024-01-15T13:30:36;54.85;;;29.20;;
45812;SDS011;31519;45.408;10.962;2024-01-15T13:33:05;52.33;;;29.10;;
45812;SDS011;31519;45.408;10.962;2024-01-15T13:35:34;54.78;;;28.35;;
45812;SDS011;31519;45.408;10.962;2024-01-15T13:38:03;54.17;;;30.42;;
45812;SDS011;31519;45.408;10.962;2024-01-15T13:40:32;51.78;;;33.45;;
45812;SDS011;31519;45.408;10.962;2024-01-15T13:43:00;54.95;;;33.63;;
45812;SDS011;31519;45.408;10.962;2024-01-15T13:45:29;63.78;;;36.28;;
45812;SDS011;31519;45.408;10.962;2024-01-15T13:47:57;70.85;;;35.22;;
45812;SDS011;31519;45.408;10.962;2024-01-15T13:50:26;65.90;;;36.42;;
45812;SDS011;31519;45.408;10.962;2024-01-15T13:52:55;66.50;;;38.38;;
45812;SDS011;31519;45.408;10.962;2024-01-15T13:55:23;64.60;;;36.35;;
45812;SDS011;31519;45.408;10.962;2024-01-15T13:57:52;72.45;;;37.22;;
45812;SDS011;31519;45.408;10.962;2024-01-15T14:00:20;71.80;;;39.63;;
45812;SDS011;31519;45.408;10.962;2024-01-15T14:02:49;73.35;;;38.08;;
45812;SDS011;31519;45.408;10.962;2024-01-15T14:05:17;75.88;;;38.22;;
45812;SDS011;31519;45.408;10.962;2024-01-15T14:07:46;71.47;;;40.75;;
45812;SDS011;31519;45.408;10.962;2024-01-15T14:10:15;75.55;;;42.70;;
45812;SDS011;31519;45.408;10.962;2024-01-15T14:12:43;82.50;;;40.47;;
45812;SDS011;31519;45.408;10.962;2024-01-15T14:15:12;74.43;;;41.15;;
45812;SDS011;31519;45.408;10.962;2024-01-15T14:17:40;78.00;;;39.95;;
45812;SDS011;31519;45.408;10.962;2024-01-15T14:20:09;80.88;;;42.80;;
45812;SDS011;31519;45.408;10.962;2024-01-15T14:22:38;75.75;;;41.17;;
45812;SDS011;31519;45.408;10.962;2024-01-15T14:25:07;80.43;;;40.10;;
45812;SDS011;31519;45.408;10.962;2024-01-15T14:27:35;79.25;;;41.30;;
45812;SDS011;31519;45.408;10.962;2024-01-15T14:30:04;75.45;;;40.10;;